Time;durP1;ratioP1;P1;durP2;ratioP2;P2;SDS_P1;SDS_P2;PMS_P1;PMS_P2;Temp;Humidity;BMP_temperature;BMP_pressure;BME280_temperature;BME280_humidity;BME280_pressure;Samples;Min_cycle;Max_cycle;Signal;HPM_P1;HPM_P2
2023/05/09 00:01:44;;;;;;;73.90;32.20;;;;;;;15.36;100.00;101660.78;5118498;27;20063;-71
2023/05/09 00:04:11;;;;;;;72.00;33.10;;;;;;;15.35;100.00;101659.94;5117436;27;20040;-69
2023/05/09 00:06:38;;;;;;;70.15;33.03;;;;;;;15.38;100.00;101659.81;5114263;27;20108;-69
2023/05/09 00:09:05;;;;;;;71.47;33.42;;;;;;;15.39;100.00;101655.38;5125294;27;20044;-71
2023/05/09 00:11:32;;;;;;;71.63;34.38;;;;;;;15.39;100.00;101650.06;5116581;27;20062;-70
2023/05/09 00:14:01;;;;;;;69.55;33.05;;;;;;;15.38;100.00;101643.84;5109405;27;20563;-69
2023/05/09 00:16:28;;;;;;;73.32;32.33;;;;;;;15.36;100.00;101637.72;5122599;27;20040;-70
2023/05/09 00:18:56;;;;;;;66.38;31.95;;;;;;;15.36;100.00;101631.56;5130074;27;20051;-70
2023/05/09 00:21:24;;;;;;;68.72;31.98;;;;;;;15.33;100.00;101624.59;5144686;27;20036;-71
2023/05/09 00:23:51;;;;;;;72.32;32.70;;;;;;;15.33;100.00;101634.31;5113135;27;20040;-70
2023/05/09 00:26:18;;;;;;;70.07;33.35;;;;;;;15.31;100.00;101623.78;5117835;27;20412;-70
2023/05/09 00:28:46;;;;;;;70.97;31.42;;;;;;;15.32;100.00;101629.94;5115980;27;20122;-70
2023/05/09 00:31:13;;;;;;;73.05;33.53;;;;;;;15.34;100.00;101625.44;5128817;27;20046;-71
2023/05/09 00:33:40;;;;;;;67.15;31.33;;;;;;;15.32;100.00;101612.22;5114876;27;20040;-71
2023/05/09 00:36:07;;;;;;;70.63;32.67;;;;;;;15.29;100.00;101612.34;5126217;27;20545;-70
2023/05/09 00:38:34;;;;;;;67.25;31.88;;;;;;;15.28;100.00;101612.41;5123564;27;20529;-70
2023/05/09 00:41:01;;;;;;;67.68;32.95;;;;;;;15.27;100.00;101610.66;5118081;27;20048;-70
2023/05/09 00:43:29;;;;;;;68.55;32.13;;;;;;;15.28;100.00;101615.91;5121600;27;20573;-69
2023/05/09 00:45:56;;;;;;;76.60;33.67;;;;;;;15.30;100.00;101615.88;5114033;27;20032;-69
2023/05/09 00:48:24;;;;;;;76.47;33.22;;;;;;;15.31;100.00;101614.94;5111703;27;20483;-70
2023/05/09 00:50:51;;;;;;;74.03;33.15;;;;;;;15.32;100.00;101614.00;5113821;27;20088;-70
2023/05/09 00:53:19;;;;;;;78.30;35.17;;;;;;;15.34;100.00;101609.50;5145231;27;20578;-70
2023/05/09 00:55:47;;;;;;;75.15;34.22;;;;;;;15.36;100.00;101607.66;5124490;27;20036;-69
2023/05/09 00:58:15;;;;;;;79.82;34.05;;;;;;;15.38;100.00;101600.50;5120929;27;20071;-70
2023/05/09 01:00:42;;;;;;;78.28;33.95;;;;;;;15.39;100.00;101599.59;5138424;27;20059;-70
2023/05/09 01:03:09;;;;;;;78.53;34.25;;;;;;;15.36;100.00;101603.19;5125748;27;20042;-69
2023/05/09 01:05:51;;;;;;;74.40;34.28;;;;;;;15.37;100.00;101604.94;5122073;27;20032;-69
2023/05/09 01:08:48;;;;;;;68.97;32.08;;;;;;;15.40;100.00;101596.00;5120781;27;20809;-70
2023/05/09 01:11:30;;;;;;;74.78;32.58;;;;;;;15.38;100.00;101585.41;5103183;27;20547;-70
2023/05/09 01:14:19;;;;;;;76.65;33.00;;;;;;;15.38;100.00;101577.44;5127547;27;20486;-70
2023/05/09 01:17:02;;;;;;;70.95;32.42;;;;;;;15.38;100.00;101581.91;5118800;27;20530;-71
2023/05/09 01:19:59;;;;;;;70.03;32.47;;;;;;;15.36;100.00;101573.13;5121102;27;20044;-71
2023/05/09 01:22:35;;;;;;;72.35;32.08;;;;;;;15.34;100.00;101565.22;5112080;27;20518;-71
2023/05/09 01:25:52;;;;;;;68.85;31.13;;;;;;;15.36;100.00;101565.16;5125451;27;20036;-71
2023/05/09 01:28:46;;;;;;;73.22;32.25;;;;;;;15.34;100.00;101561.69;5116120;27;20516;-71
2023/05/09 01:31:15;;;;;;;;;;;;;;;15.31;100.00;101560.03;5117462;27;20039;-71
2023/05/09 01:33:47;;;;;;;71.53;33.28;;;;;;;15.32;100.00;101559.09;5131640;27;19970;-71
2023/05/09 01:36:18;;;;;;;73.45;33.38;;;;;;;15.33;100.00;101557.28;5115877;27;20143;-70
2023/05/09 01:38:50;;;;;;;83.15;35.35;;;;;;;15.32;100.00;101551.13;5124608;27;20051;-70
2023/05/09 01:41:20;;;;;;;75.60;34.33;;;;;;;15.34;100.00;101559.91;5112440;27;20048;-70
2023/05/09 01:43:50;;;;;;;80.40;34.08;;;;;;;15.33;100.00;101557.28;5122839;27;20043;-70
2023/05/09 01:46:21;;;;;;;80.03;34.28;;;;;;;15.34;100.00;101557.25;5123794;27;20043;-70
2023/05/09 01:48:49;;;;;;;82.47;34.53;;;;;;;15.34;100.00;101556.38;5113060;27;20047;-70
2023/05/09 01:51:20;;;;;;;83.00;35.00;;;;;;;15.32;100.00;101555.56;5109663;27;20037;-70
2023/05/09 01:53:50;;;;;;;84.85;35.70;;;;;;;15.32;100.00;101550.25;5118162;27;20691;-70
2023/05/09 01:56:20;;;;;;;80.05;34.22;;;;;;;15.31;100.00;101554.72;5114096;27;20082;-70
2023/05/09 01:58:50;;;;;;;82.78;34.35;;;;;;;15.30;100.00;101547.66;5124231;27;20058;-71
2023/05/09 02:01:19;;;;;;;81.88;35.92;;;;;;;15.30;100.00;101544.16;5112071;27;20477;-71
2023/05/09 02:03:51;;;;;;;81.40;34.95;;;;;;;15.29;100.00;101543.28;5121286;27;20783;-71
2023/05/09 02:06:22;;;;;;;79.68;34.38;;;;;;;15.28;100.00;101538.88;5119201;27;20066;-70
2023/05/09 02:08:49;;;;;;;74.35;33.47;;;;;;;15.28;100.00;101538.88;5140332;27;20118;-70
2023/05/09 02:11:17;;;;;;;76.60;33.45;;;;;;;15.29;100.00;101529.13;5126852;27;20117;-71
2023/05/09 02:13:44;;;;;;;79.22;34.90;;;;;;;15.29;100.00;101527.34;5109164;27;20090;-71
2023/05/09 02:16:11;;;;;;;69.65;32.58;;;;;;;15.27;100.00;101528.31;5125046;27;20040;-71
2023/05/09 02:18:38;;;;;;;77.65;32.97;;;;;;;15.26;100.00;101529.25;5126490;27;20039;-72
2023/05/09 02:21:06;;;;;;;71.93;33.45;;;;;;;15.25;100.00;101523.09;5107686;27;20556;-72
2023/05/09 02:23:34;;;;;;;75.80;32.10;;;;;;;15.25;100.00;101531.06;5137314;27;20241;-71
2023/05/09 02:26:02;;;;;;;70.25;32.47;;;;;;;15.24;100.00;101526.66;5109692;27;20079;-71
2023/05/09 02:28:31;;;;;;;67.30;31.48;;;;;;;15.24;100.00;101536.41;5122033;27;20031;-72
2023/05/09 02:31:05;;;;;;;71.53;30.08;;;;;;;15.22;100.00;101529.34;5123892;27;20089;-72
2023/05/09 02:33:36;;;;;;;71.22;32.20;;;;;;;15.21;100.00;101529.44;5120423;27;20465;-71
2023/05/09 02:36:05;;;;;;;72.05;31.13;;;;;;;15.21;100.00;101532.94;5120141;27;20044;-71
2023/05/09 02:38:34;;;;;;;72.15;31.85;;;;;;;15.19;100.00;101518.88;5127787;27;20028;-71
2023/05/09 02:41:01;;;;;;;67.47;30.75;;;;;;;15.19;100.00;101525.97;5116383;27;20060;-71
2023/05/09 02:43:28;;;;;;;69.82;32.78;;;;;;;15.17;100.00;101522.50;5121826;27;20097;-71
2023/05/09 02:45:55;;;;;;;69.25;31.40;;;;;;;15.17;100.00;101531.34;5112015;27;20036;-72
2023/05/09 02:48:23;;;;;;;67.78;30.33;;;;;;;15.17;100.00;101515.41;5118163;27;20601;-71
2023/05/09 02:50:50;;;;;;;70.60;33.03;;;;;;;15.14;100.00;101515.50;5106943;27;20423;-71
2023/05/09 02:53:17;;;;;;;65.55;30.60;;;;;;;15.16;100.00;101523.44;5117834;27;20040;-71
2023/05/09 02:55:44;;;;;;;66.60;30.30;;;;;;;15.15;100.00;101519.06;5105766;27;20048;-72
2023/05/09 02:58:11;;;;;;;64.32;30.08;;;;;;;15.12;100.00;101517.34;5106976;27;20040;-72
2023/05/09 03:00:42;;;;;;;66.07;28.85;;;;;;;15.11;100.00;101509.47;5133756;27;20093;-72
2023/05/09 03:03:10;;;;;;;64.95;29.42;;;;;;;15.09;100.00;101506.88;5118376;27;20032;-72
2023/05/09 03:05:37;;;;;;;61.50;28.60;;;;;;;15.07;100.00;101508.72;5095364;27;20869;-71
2023/05/09 03:08:05;;;;;;;55.97;28.45;;;;;;;15.07;100.00;101506.06;5139998;27;20102;-71
2023/05/09 03:10:33;;;;;;;56.90;27.05;;;;;;;15.05;100.00;101499.94;5107164;27;20047;-71
2023/05/09 03:13:00;;;;;;;55.42;28.02;;;;;;;15.03;100.00;101502.66;5115504;27;20039;-71
2023/05/09 03:15:27;;;;;;;56.80;27.75;;;;;;;15.00;100.00;101494.81;5106828;27;20056;-71
2023/05/09 03:17:58;;;;;;;57.90;27.70;;;;;;;14.99;100.00;101489.56;5120587;27;20093;-71
2023/05/09 03:20:26;;;;;;;56.75;28.15;;;;;;;14.99;100.00;101500.19;5122991;27;20047;-71
2023/05/09 03:22:53;;;;;;;51.15;26.13;;;;;;;14.98;100.00;101494.00;5114052;27;20555;-71
2023/05/09 03:25:21;;;;;;;51.67;25.50;;;;;;;14.99;100.00;101490.41;5122388;27;20036;-71
2023/05/09 03:27:48;;;;;;;54.80;26.42;;;;;;;14.97;100.00;101489.59;5116787;27;20635;-71
2023/05/09 03:30:16;;;;;;;53.88;26.15;;;;;;;14.98;100.00;101485.19;5114427;27;20097;-70
2023/05/09 03:32:45;;;;;;;48.92;26.33;;;;;;;14.98;100.00;101482.53;5124860;27;20127;-71
2023/05/09 03:35:12;;;;;;;51.30;26.13;;;;;;;14.99;100.00;101482.47;5109476;27;20094;-71
2023/05/09 03:37:39;;;;;;;51.45;26.73;;;;;;;14.98;100.00;101480.72;5139239;27;20470;-72
2023/05/09 03:40:07;;;;;;;51.03;25.77;;;;;;;14.99;100.00;101478.94;5106210;28;20047;-72
2023/05/09 03:42:41;;;;;;;57.03;26.77;;;;;;;14.97;100.00;101471.03;5106073;27;20048;-72
2023/05/09 03:45:09;;;;;;;53.67;26.52;;;;;;;14.98;100.00;101471.91;5105194;28;20956;-72
2023/05/09 03:47:37;;;;;;;54.95;27.70;;;;;;;14.97;100.00;101463.06;5113834;27;20036;-72
2023/05/09 03:50:05;;;;;;;53.72;26.35;;;;;;;14.97;100.00;101463.06;5114109;27;20137;-72
2023/05/09 03:52:33;;;;;;;51.00;26.83;;;;;;;14.97;100.00;101463.06;5110310;27;20036;-72
2023/05/09 03:55:02;;;;;;;54.63;26.17;;;;;;;14.96;100.00;101469.28;5103670;27;20032;-72
2023/05/09 03:57:34;;;;;;;51.38;25.90;;;;;;;14.97;100.00;101459.56;5109723;27;20043;-72
2023/05/09 04:00:05;;;;;;;51.50;26.00;;;;;;;14.96;100.00;101452.50;5122670;27;20949;-71
2023/05/09 04:02:41;;;;;;;50.20;25.88;;;;;;;14.95;100.00;101456.09;5126826;27;20059;-71
2023/05/09 04:05:15;;;;;;;49.50;25.90;;;;;;;14.96;100.00;101453.38;5121675;27;20151;-71
2023/05/09 04:07:44;;;;;;;51.97;26.98;;;;;;;14.95;100.00;101456.09;5121348;27;20033;-71
2023/05/09 04:10:11;;;;;;;48.47;24.90;;;;;;;14.93;100.00;101449.97;5100409;27;20109;-71
2023/05/09 04:12:38;;;;;;;56.50;26.13;;;;;;;14.93;100.00;101449.97;5126090;27;20040;-71
2023/05/09 04:15:07;;;;;;;46.88;24.73;;;;;;;14.93;100.00;101453.50;5124741;27;20494;-71
2023/05/09 04:17:34;;;;;;;45.72;24.23;;;;;;;14.92;100.00;101454.44;5114067;27;20496;-71
2023/05/09 04:20:02;;;;;;;45.13;24.50;;;;;;;14.93;100.00;101450.84;5128307;27;20502;-71
2023/05/09 04:22:29;;;;;;;51.42;25.55;;;;;;;14.92;100.00;101454.44;5138796;27;20161;-72
2023/05/09 04:24:56;;;;;;;47.50;24.75;;;;;;;14.91;100.00;101447.38;5105599;27;20495;-71
2023/05/09 04:27:23;;;;;;;46.33;24.13;;;;;;;14.91;100.00;101447.38;5118731;27;20040;-72
2023/05/09 04:29:52;;;;;;;49.05;25.13;;;;;;;14.91;100.00;101445.59;5119216;27;20040;-71
2023/05/09 04:32:21;;;;;;;44.05;24.98;;;;;;;14.92;100.00;101449.13;5116908;27;20036;-71
2023/05/09 04:34:48;;;;;;;54.90;24.25;;;;;;;14.94;100.00;101449.03;5160767;27;20662;-70
2023/05/09 04:37:20;;;;;;;44.17;23.40;;;;;;;14.98;100.00;101442.72;5108914;27;20074;-70
2023/05/09 04:39:47;;;;;;;42.28;23.35;;;;;;;14.99;100.00;101452.41;5119114;27;20047;-71
2023/05/09 04:42:24;;;;;;;44.65;23.08;;;;;;;14.99;100.00;101431.16;5124071;27;20040;-71
2023/05/09 04:44:51;;;;;;;42.90;22.77;;;;;;;14.98;100.00;101440.91;5107476;27;20573;-71
2023/05/09 04:47:20;;;;;;;46.80;24.27;;;;;;;15.00;100.00;101435.56;5126198;27;20126;-71
2023/05/09 04:49:47;;;;;;;50.20;23.30;;;;;;;15.00;100.00;101430.25;5122188;27;20110;-71
2023/05/09 04:52:15;;;;;;;41.78;21.92;;;;;;;15.01;100.00;101427.50;5121357;27;20167;-73
2023/05/09 04:54:43;;;;;;;41.67;22.20;;;;;;;15.02;100.00;101429.25;5137517;27;20622;-71
2023/05/09 04:57:11;;;;;;;41.33;22.70;;;;;;;15.03;100.00;101423.00;5122581;27;20921;-70
2023/05/09 04:59:47;;;;;;;38.92;22.10;;;;;;;15.05;100.00;101418.50;5107618;27;20036;-70
2023/05/09 05:02:14;;;;;;;40.60;22.63;;;;;;;15.08;100.00;101420.19;5125005;27;20052;-71
2023/05/09 05:04:42;;;;;;;40.65;21.58;;;;;;;15.11;100.00;101413.88;5136192;27;20404;-70
2023/05/09 05:07:09;;;;;;;37.58;20.60;;;;;;;15.13;100.00;101414.69;5124375;27;20043;-71
2023/05/09 05:09:37;;;;;;;37.33;19.98;;;;;;;15.15;100.00;101407.53;5141859;27;20180;-71
2023/05/09 05:12:06;;;;;;;39.22;20.58;;;;;;;15.19;100.00;101407.34;5115485;27;20570;-70
2023/05/09 05:14:35;;;;;;;32.08;18.88;;;;;;;15.22;100.00;101403.69;5126042;27;20040;-70
2023/05/09 05:17:04;;;;;;;35.45;19.33;;;;;;;15.30;100.00;101406.88;5128945;27;20067;-71
2023/05/09 05:19:32;;;;;;;34.25;18.92;;;;;;;15.42;100.00;101392.22;5140015;27;20817;-70
2023/05/09 05:22:01;;;;;;;34.13;18.35;;;;;;;15.57;100.00;101390.69;5134633;27;20040;-69
2023/05/09 05:24:28;;;;;;;39.60;17.88;;;;;;;15.68;99.70;101388.44;5119326;27;20993;-69
2023/05/09 05:26:56;;;;;;;40.65;18.17;;;;;;;15.80;99.42;101397.72;5122268;27;20551;-68
2023/05/09 05:29:24;;;;;;;32.17;18.13;;;;;;;15.92;99.12;101390.16;5124205;27;20082;-70
2023/05/09 05:31:51;;;;;;;32.88;17.02;;;;;;;16.03;97.87;101393.19;5124824;27;20047;-70
2023/05/09 05:34:20;;;;;;;28.95;16.00;;;;;;;16.16;97.32;101380.22;5125311;27;20171;-70
2023/05/09 05:36:47;;;;;;;28.38;17.40;;;;;;;16.28;95.62;101379.63;5110264;27;20043;-70
2023/05/09 05:39:14;;;;;;;31.92;18.30;;;;;;;16.41;94.89;101379.97;5125875;27;20063;-70
2023/05/09 05:41:41;;;;;;;27.08;16.67;;;;;;;16.57;94.22;101377.44;5125735;27;20071;-71
2023/05/09 05:44:09;;;;;;;29.20;17.52;;;;;;;16.71;93.75;101368.81;5122671;27;20312;-69
2023/05/09 05:46:37;;;;;;;27.02;16.88;;;;;;;16.79;93.41;101367.56;5122897;27;21070;-71
2023/05/09 05:49:04;;;;;;;28.52;17.95;;;;;;;16.83;93.07;101366.50;5135642;27;20546;-70
2023/05/09 05:51:33;;;;;;;28.83;17.88;;;;;;;16.83;93.02;101363.84;5141008;27;20162;-70
2023/05/09 05:54:01;;;;;;;27.73;16.85;;;;;;;16.81;92.29;101357.72;5126137;27;20097;-70
2023/05/09 05:56:30;;;;;;;26.92;16.98;;;;;;;16.77;91.81;101351.69;5123876;27;20040;-70
2023/05/09 05:58:57;;;;;;;27.98;17.70;;;;;;;16.77;92.05;101352.53;5122876;27;20961;-70
2023/05/09 06:01:24;;;;;;;29.05;17.88;;;;;;;16.75;91.13;101349.06;5122254;27;20048;-71
2023/05/09 06:03:54;;;;;;;28.05;16.73;;;;;;;16.72;91.16;101338.59;5119874;27;20907;-70
2023/05/09 06:06:26;;;;;;;26.95;17.52;;;;;;;16.74;91.14;101343.81;5143556;27;20036;-70
2023/05/09 06:08:54;;;;;;;28.67;17.38;;;;;;;16.76;90.98;101348.13;5112651;27;20051;-70
2023/05/09 06:11:22;;;;;;;28.75;17.17;;;;;;;16.84;91.51;101342.44;5141711;27;20459;-69
2023/05/09 06:13:49;;;;;;;27.30;17.90;;;;;;;16.90;90.86;101336.81;5123696;27;20040;-69
2023/05/09 06:16:16;;;;;;;36.58;18.98;;;;;;;16.90;90.28;101334.13;5125370;27;20040;-69
2023/05/09 06:18:48;;;;;;;28.10;17.73;;;;;;;16.87;89.75;101325.44;5112963;27;20064;-69
2023/05/09 06:21:15;;;;;;;28.55;17.52;;;;;;;16.87;89.75;101326.31;5122661;27;20686;-69
2023/05/09 06:23:43;;;;;;;29.83;17.80;;;;;;;16.87;89.21;101323.66;5126516;27;20040;-69
2023/05/09 06:26:30;;;;;;;28.65;17.55;;;;;;;16.92;90.11;101331.44;5121205;27;20048;-71
2023/05/09 06:28:57;;;;;;;28.02;17.55;;;;;;;16.96;89.51;101321.50;5160476;27;20039;-71
2023/05/09 06:31:25;;;;;;;28.08;17.48;;;;;;;17.03;89.44;101314.94;5125560;27;20044;-70
2023/05/09 06:33:52;;;;;;;27.42;17.55;;;;;;;17.15;89.17;101316.09;5127928;27;20031;-69
2023/05/09 06:36:19;;;;;;;30.80;17.08;;;;;;;17.27;88.87;101309.31;5121485;27;20040;-71
2023/05/09 06:38:46;;;;;;;27.35;17.30;;;;;;;17.38;88.25;101313.13;5126055;27;20038;-70
2023/05/09 06:41:13;;;;;;;26.95;16.63;;;;;;;17.46;87.60;101309.22;5128580;27;20067;-70
2023/05/09 06:43:40;;;;;;;23.33;16.42;;;;;;;17.54;87.99;101304.38;5124429;27;20530;-70
2023/05/09 06:46:07;;;;;;;25.58;15.80;;;;;;;17.65;87.10;101311.78;5122283;27;20046;-69
2023/05/09 06:48:34;;;;;;;23.60;15.20;;;;;;;17.74;86.09;101297.97;5108818;27;20040;-69
2023/05/09 06:51:01;;;;;;;38.97;16.92;;;;;;;17.84;85.99;101295.69;5128351;27;20040;-69
2023/05/09 06:53:28;;;;;;;24.77;15.18;;;;;;;17.95;86.20;101295.09;5140433;27;20101;-69
2023/05/09 06:55:56;;;;;;;21.33;15.00;;;;;;;18.07;84.38;101288.25;5124270;27;20603;-70
2023/05/09 06:58:23;;;;;;;24.50;15.35;;;;;;;18.16;83.73;101291.28;5124661;27;20042;-70
2023/05/09 07:00:50;;;;;;;28.85;14.40;;;;;;;18.28;83.85;101286.22;5126523;27;20044;-70
2023/05/09 07:03:17;;;;;;;22.55;14.52;;;;;;;18.41;84.02;101281.91;5128414;27;20074;-69
2023/05/09 07:05:44;;;;;;;23.30;14.32;;;;;;;18.59;82.17;101284.47;5126600;27;20111;-71
2023/05/09 07:08:12;;;;;;;18.65;13.38;;;;;;;18.74;81.99;101278.25;5119911;27;20039;-69
2023/05/09 07:10:39;;;;;;;19.90;13.50;;;;;;;18.93;81.92;101274.53;5144009;27;20039;-71
2023/05/09 07:13:06;;;;;;;22.48;13.85;;;;;;;19.04;80.05;101271.25;5127638;27;20042;-71
2023/05/09 07:15:33;;;;;;;21.15;13.43;;;;;;;19.12;78.93;101271.63;5127319;27;20575;-71
2023/05/09 07:18:08;;;;;;;25.70;13.10;;;;;;;19.18;79.49;101265.91;5127286;27;20039;-71
2023/05/09 07:20:35;;;;;;;20.23;12.93;;;;;;;19.26;78.98;101260.13;5127478;27;20044;-71
2023/05/09 07:23:03;;;;;;;23.83;12.82;;;;;;;19.32;78.02;101262.44;5143555;27;20048;-71
2023/05/09 07:25:30;;;;;;;16.75;12.20;;;;;;;19.30;77.72;101264.34;5143799;27;20039;-71
2023/05/09 07:27:57;;;;;;;21.70;11.70;;;;;;;19.24;77.16;101260.22;5126573;27;20036;-71
2023/05/09 07:30:24;;;;;;;21.17;13.38;;;;;;;19.18;77.09;101252.56;5126999;27;20040;-71
2023/05/09 07:32:51;;;;;;;20.70;12.80;;;;;;;19.09;76.94;101248.63;5126849;27;20050;-71
2023/05/09 07:35:19;;;;;;;22.10;12.07;;;;;;;19.04;76.92;101249.88;5143521;27;20032;-71
2023/05/09 07:37:46;;;;;;;24.70;12.63;;;;;;;19.03;77.79;101250.81;5126916;27;20048;-71
2023/05/09 07:40:14;;;;;;;16.80;12.05;;;;;;;19.03;77.58;101243.66;5132222;27;20459;-71
2023/05/09 07:42:48;;;;;;;17.27;12.25;;;;;;;19.07;76.85;101239.00;5148848;27;20039;-71
2023/05/09 07:45:15;;;;;;;15.75;12.15;;;;;;;19.07;76.47;101242.53;5164209;27;20130;-71
2023/05/09 07:47:43;;;;;;;20.48;12.68;;;;;;;19.09;76.53;101234.41;5147616;27;20916;-71
2023/05/09 07:50:10;;;;;;;17.92;12.65;;;;;;;19.14;76.52;101229.66;5146917;27;20035;-71
2023/05/09 07:52:37;;;;;;;17.27;12.40;;;;;;;19.22;77.05;101227.38;5109096;27;20643;-71
2023/05/09 07:55:05;;;;;;;16.27;11.65;;;;;;;19.35;76.80;101218.63;5106868;28;20040;-71
2023/05/09 07:57:32;;;;;;;17.33;12.07;;;;;;;19.45;76.54;101224.22;5106501;28;20147;-71
2023/05/09 07:59:59;;;;;;;15.43;11.07;;;;;;;19.55;76.37;101218.25;5107174;28;20101;-71
2023/05/09 08:02:26;;;;;;;19.00;10.23;;;;;;;19.65;75.43;101217.66;5105678;28;20527;-71
2023/05/09 08:04:53;;;;;;;14.13;10.50;;;;;;;19.59;75.46;101218.91;5106603;27;20067;-71
2023/05/09 08:07:20;;;;;;;15.75;11.15;;;;;;;19.49;75.97;101207.91;5108381;27;20151;-71
2023/05/09 08:09:47;;;;;;;21.08;11.10;;;;;;;19.50;76.38;101206.97;5110861;28;20044;-71
2023/05/09 08:12:14;;;;;;;20.70;11.00;;;;;;;19.55;76.66;101207.53;5110730;28;20040;-71
2023/05/09 08:14:42;;;;;;;15.23;10.20;;;;;;;19.57;75.79;101199.41;5125823;27;20131;-71
2023/05/09 08:17:08;;;;;;;15.90;10.65;;;;;;;19.51;75.54;101203.34;5120543;27;20042;-71
2023/05/09 08:19:35;;;;;;;17.33;9.90;;;;;;;19.45;74.49;101198.38;5130732;27;20048;-71
2023/05/09 08:22:03;;;;;;;18.98;10.40;;;;;;;19.38;74.94;101195.22;5130494;27;20050;-71
2023/05/09 08:24:31;;;;;;;14.98;10.80;;;;;;;19.34;75.01;101188.34;5147209;27;20938;-71
2023/05/09 08:26:58;;;;;;;16.65;10.65;;;;;;;19.33;75.14;101186.63;5146725;27;20880;-71
2023/05/09 08:29:26;;;;;;;13.93;9.77;;;;;;;19.27;75.34;101180.81;5164528;27;20047;-71
2023/05/09 08:31:53;;;;;;;13.55;9.48;;;;;;;19.22;75.42;101181.94;5128150;27;20780;-71
2023/05/09 08:34:20;;;;;;;12.55;9.52;;;;;;;19.16;75.46;101178.78;5131052;27;20133;-71
2023/05/09 08:36:47;;;;;;;15.18;10.00;;;;;;;19.15;75.70;101180.59;5109492;27;20508;-71
2023/05/09 08:39:14;;;;;;;16.25;10.60;;;;;;;19.23;75.74;101174.78;5108740;28;20028;-71
2023/05/09 08:41:42;;;;;;;17.33;9.60;;;;;;;19.22;75.81;101175.75;5110321;28;20526;-70
2023/05/09 08:44:10;;;;;;;14.88;9.05;;;;;;;19.21;73.95;101174.88;5110528;28;20074;-70
2023/05/09 08:46:42;;;;;;;15.77;9.85;;;;;;;19.19;74.93;101167.91;5112990;27;20126;-70
2023/05/09 08:49:10;;;;;;;15.95;9.75;;;;;;;19.12;74.97;101167.44;5129215;27;20051;-70
2023/05/09 08:51:38;;;;;;;16.60;9.73;;;;;;;19.15;75.39;101161.03;5132864;27;20351;-70
2023/05/09 08:54:06;;;;;;;14.45;10.18;;;;;;;19.16;75.51;101163.63;5130363;27;20061;-70
2023/05/09 08:56:34;;;;;;;14.55;10.57;;;;;;;19.09;75.38;101163.13;5129204;27;20028;-70
2023/05/09 08:59:04;;;;;;;14.52;9.68;;;;;;;18.98;75.01;101159.38;5129045;27;20039;-70
2023/05/09 09:01:36;;;;;;;12.20;9.25;;;;;;;18.85;74.97;101162.78;5129087;27;20051;-70
2023/05/09 09:04:06;;;;;;;29.13;10.52;;;;;;;18.73;75.89;101166.19;5131762;27;20089;-69
2023/05/09 09:06:35;;;;;;;13.15;8.88;;;;;;;18.67;75.23;101164.75;5151627;27;20714;-70
2023/05/09 09:09:05;;;;;;;13.65;8.50;;;;;;;18.55;75.31;101168.13;5151824;27;20545;-70
2023/05/09 09:11:37;;;;;;;12.45;7.90;;;;;;;18.49;75.67;101163.16;5149576;27;20555;-70
2023/05/09 09:14:19;;;;;;;10.77;7.70;;;;;;;18.47;75.40;101158.78;5151107;27;20096;-70
2023/05/09 09:16:48;;;;;;;12.60;7.68;;;;;;;18.58;74.97;101165.28;5150643;27;20557;-70
2023/05/09 09:19:17;;;;;;;13.80;7.60;;;;;;;18.76;74.70;101161.53;5143306;27;20071;-70
2023/05/09 09:21:46;;;;;;;11.70;7.25;;;;;;;19.01;73.44;101151.19;5118866;27;20050;-70
2023/05/09 09:24:18;;;;;;;16.48;7.45;;;;;;;19.17;73.41;101152.00;5123392;27;20040;-70
2023/05/09 09:26:48;;;;;;;10.48;7.15;;;;;;;19.30;72.28;101152.06;5129870;27;20462;-70
2023/05/09 09:29:17;;;;;;;19.48;8.60;;;;;;;19.43;72.72;101138.78;5146161;27;20126;-70
2023/05/09 09:31:46;;;;;;;12.10;7.18;;;;;;;19.57;72.24;101147.78;5129570;27;20096;-70
2023/05/09 09:34:21;;;;;;;14.63;7.75;;;;;;;19.61;71.84;101142.13;5144846;27;20042;-70
2023/05/09 09:36:49;;;;;;;14.45;7.13;;;;;;;19.62;71.77;101137.63;5129127;27;20039;-70
2023/05/09 09:39:16;;;;;;;15.60;6.47;;;;;;;19.66;72.05;101139.16;5143715;27;20044;-71
2023/05/09 09:41:43;;;;;;;8.65;5.97;;;;;;;19.62;71.54;101141.16;5109152;27;20159;-70
2023/05/09 09:44:17;;;;;;;8.50;6.03;;;;;;;19.65;71.72;101134.75;5124705;27;20043;-70
2023/05/09 09:46:50;;;;;;;8.73;5.57;;;;;;;19.64;68.81;101130.38;5127286;27;20035;-70
2023/05/09 09:49:26;;;;;;;11.68;5.20;;;;;;;19.53;69.05;101128.41;5129751;27;20850;-70
2023/05/09 09:51:57;;;;;;;11.57;5.45;;;;;;;19.40;69.79;101126.50;5128773;27;20114;-70
2023/05/09 09:54:26;;;;;;;8.15;4.97;;;;;;;19.34;70.19;101126.00;5123500;27;20499;-70
2023/05/09 09:56:55;;;;;;;11.02;5.43;;;;;;;19.33;70.99;101117.13;5120303;27;20108;-70
2023/05/09 09:59:25;;;;;;;8.88;4.72;;;;;;;19.42;70.22;101106.81;5110395;27;20128;-70
2023/05/09 10:02:03;;;;;;;10.98;5.03;;;;;;;19.51;69.87;101115.09;5109518;27;20047;-70
2023/05/09 10:04:37;;;;;;;9.68;5.35;;;;;;;19.64;70.10;101108.97;5126277;27;20039;-71
2023/05/09 10:07:09;;;;;;;9.48;4.80;;;;;;;19.76;69.60;101094.81;5145217;27;20566;-70
2023/05/09 10:09:42;;;;;;;8.32;4.75;;;;;;;19.89;68.69;101107.44;5128842;27;20092;-70
2023/05/09 10:12:10;;;;;;;8.25;4.38;;;;;;;19.96;68.44;101112.25;5123475;27;20118;-70
2023/05/09 10:14:41;;;;;;;18.60;5.88;;;;;;;20.10;67.38;101107.81;5166353;27;20045;-70
2023/05/09 10:17:16;;;;;;;20.25;6.00;;;;;;;20.16;68.50;101104.72;5137092;27;20031;-70
2023/05/09 10:19:47;;;;;;;7.95;5.25;;;;;;;20.17;68.40;101107.31;5122113;27;20040;-70
2023/05/09 10:22:18;;;;;;;12.50;5.18;;;;;;;20.11;68.33;101105.03;5141646;27;20892;-70
2023/05/09 10:24:55;;;;;;;13.02;5.55;;;;;;;20.00;68.14;101102.19;5111676;27;20049;-70
2023/05/09 10:27:27;;;;;;;7.78;5.10;;;;;;;19.97;68.31;101102.41;5128477;27;20120;-71
2023/05/09 10:30:21;;;;;;;9.05;4.78;;;;;;;19.91;67.66;101102.81;5128797;27;20516;-70
2023/05/09 10:32:48;;;;;;;9.13;5.28;;;;;;;19.83;67.87;101095.28;5108981;27;20039;-70
2023/05/09 10:35:19;;;;;;;11.80;5.82;;;;;;;19.74;69.23;101094.06;5108450;28;20044;-70
2023/05/09 10:37:47;;;;;;;25.83;6.80;;;;;;;19.73;69.89;101086.97;5127073;27;20039;-70
2023/05/09 10:40:14;;;;;;;12.68;5.40;;;;;;;19.74;69.16;101085.19;5138379;27;20039;-70
2023/05/09 10:42:43;;;;;;;10.55;5.15;;;;;;;19.76;69.57;101078.75;5128727;27;20122;-70
2023/05/09 10:45:11;;;;;;;9.07;4.50;;;;;;;19.77;68.62;101076.94;5126692;27;20851;-70
2023/05/09 10:47:42;;;;;;;10.93;4.88;;;;;;;19.70;69.12;101079.16;5126234;27;20089;-70
2023/05/09 10:50:14;;;;;;;8.25;3.80;;;;;;;19.66;68.89;101073.16;5133699;27;20397;-70
2023/05/09 10:53:17;;;;;;;9.68;4.30;;;;;;;19.51;69.53;101074.16;5117376;27;20040;-70
2023/05/09 10:55:50;;;;;;;6.72;4.40;;;;;;;19.36;69.96;101070.66;5125738;27;20036;-70
2023/05/09 10:58:27;;;;;;;8.60;4.20;;;;;;;19.26;71.02;101074.88;5138950;27;20153;-71
2023/05/09 11:00:58;;;;;;;6.97;4.50;;;;;;;19.12;71.46;101073.06;5160919;27;20039;-70
2023/05/09 11:03:28;;;;;;;5.93;4.10;;;;;;;19.02;72.30;101073.66;5123713;27;20562;-71
2023/05/09 11:05:57;;;;;;;5.75;3.70;;;;;;;18.97;73.45;101075.72;5107920;27;20043;-70
2023/05/09 11:08:32;;;;;;;4.15;3.05;;;;;;;18.89;73.71;101072.66;5110608;27;20385;-70
2023/05/09 11:11:06;;;;;;;4.32;3.20;;;;;;;18.69;73.88;101072.06;5128106;27;20119;-70
2023/05/09 11:13:37;;;;;;;;;;;;;;;18.51;74.65;101073.19;5114394;27;20040;-70
2023/05/09 11:16:08;;;;;;;2.58;2.20;;;;;;;18.29;75.02;101079.78;5110588;27;20801;-70
2023/05/09 11:18:50;;;;;;;3.70;2.33;;;;;;;18.04;75.90;101070.53;5115553;27;20032;-70
2023/05/09 11:21:19;;;;;;;4.70;3.17;;;;;;;17.83;77.20;101065.47;5124068;27;20504;-70